Time;durP1;ratioP1;P1;durP2;ratioP2;P2;SDS_P1;SDS_P2;PMS_P1;PMS_P2;Temp;Humidity;BMP_temperature;BMP_pressure;BME280_temperature;BME280_humidity;BME280_pressure;Samples;Min_cycle;Max_cycle;Signal;HPM_P1;HPM_P2
2023/03/20 00:04:53;;;;;;;2.77;2.40;;;11.00;99.90;;;;;;10313118;28;20225;-66
2023/03/20 00:09:56;;;;;;;3.30;2.57;;;11.00;99.90;;;;;;10320855;28;20233;-65
2023/03/20 00:14:58;;;;;;;2.47;2.17;;;11.10;99.90;;;;;;10317748;28;20653;-67
2023/03/20 00:20:02;;;;;;;4.37;2.70;;;11.20;99.90;;;;;;10321255;28;20698;-66
2023/03/20 00:25:02;;;;;;;2.80;2.43;;;11.20;99.90;;;;;;10311492;28;20223;-67
2023/03/20 00:30:19;;;;;;;3.23;2.53;;;11.20;99.90;;;;;;10315307;28;20226;-65
2023/03/20 00:35:28;;;;;;;4.10;2.90;;;11.10;99.90;;;;;;10311470;28;20234;-65
2023/03/20 00:40:30;;;;;;;4.37;2.93;;;11.10;99.90;;;;;;10325999;28;20258;-66
2023/03/20 00:45:34;;;;;;;3.97;3.57;;;11.10;99.90;;;;;;10323990;28;20222;-65
2023/03/20 00:50:34;;;;;;;4.37;3.47;;;11.10;99.90;;;;;;10320157;28;20236;-66
2023/03/20 00:55:35;;;;;;;4.07;3.60;;;11.10;99.90;;;;;;10312345;28;20702;-64
2023/03/20 01:00:43;;;;;;;4.97;3.77;;;11.00;99.90;;;;;;10317042;28;20317;-65
2023/03/20 01:05:47;;;;;;;4.07;3.70;;;11.10;99.90;;;;;;10317933;28;20230;-66
2023/03/20 01:10:51;;;;;;;4.33;3.90;;;11.00;99.90;;;;;;10323376;28;20237;-66
2023/03/20 01:15:53;;;;;;;4.80;3.90;;;11.00;99.90;;;;;;10311095;28;20229;-66
2023/03/20 01:20:54;;;;;;;4.17;3.77;;;11.00;99.90;;;;;;10321987;28;20222;-65
2023/03/20 01:25:54;;;;;;;4.47;4.07;;;11.00;99.90;;;;;;10325970;28;20228;-66
2023/03/20 01:30:55;;;;;;;4.87;4.20;;;10.90;99.90;;;;;;10309488;28;20237;-66
2023/03/20 01:35:56;;;;;;;7.00;4.80;;;10.90;99.90;;;;;;10307020;28;20313;-65
2023/03/20 01:41:15;;;;;;;5.20;4.70;;;10.80;99.90;;;;;;10309431;28;20229;-67
2023/03/20 01:46:27;;;;;;;6.03;4.60;;;10.80;99.90;;;;;;10309772;28;20249;-66
2023/03/20 01:51:31;;;;;;;5.20;4.67;;;10.80;99.90;;;;;;10322788;28;20234;-66
2023/03/20 01:56:37;;;;;;;6.53;4.97;;;10.80;99.90;;;;;;10318741;28;20826;-66
2023/03/20 02:01:39;;;;;;;6.20;5.43;;;10.70;99.90;;;;;;10312526;28;20230;-73
2023/03/20 02:06:44;;;;;;;6.27;5.67;;;10.70;99.90;;;;;;10311642;28;20247;-76
2023/03/20 02:11:46;;;;;;;6.33;5.73;;;10.70;99.90;;;;;;10309820;28;20292;-75
2023/03/20 02:16:47;;;;;;;6.33;5.73;;;10.70;99.90;;;;;;10317946;28;20685;-74
2023/03/20 02:22:11;;;;;;;6.77;6.10;;;10.60;99.90;;;;;;10310231;28;20230;-75
2023/03/20 02:27:49;;;;;;;5.70;5.20;;;10.70;99.90;;;;;;10313678;28;20250;-72
2023/03/20 02:33:33;;;;;;;7.43;6.00;;;10.60;99.90;;;;;;10304304;28;20590;-71
2023/03/20 02:38:57;;;;;;;7.73;5.50;;;10.60;99.90;;;;;;10309879;28;20697;-72
2023/03/20 02:44:18;;;;;;;6.10;5.53;;;10.60;99.90;;;;;;10304922;28;20632;-73
2023/03/20 02:49:49;;;;;;;6.03;5.43;;;10.60;99.90;;;;;;10324967;28;20242;-72
2023/03/20 02:55:10;;;;;;;6.23;5.43;;;10.60;99.90;;;;;;10303431;28;20226;-72
2023/03/20 03:00:17;;;;;;;6.07;5.10;;;10.60;99.90;;;;;;10309389;28;20275;-73
2023/03/20 03:05:26;;;;;;;5.67;5.17;;;10.60;99.90;;;;;;10309220;28;20186;-71
2023/03/20 03:10:31;;;;;;;5.23;4.73;;;10.60;99.90;;;;;;10324392;28;20232;-72
2023/03/20 03:15:41;;;;;;;6.03;5.00;;;10.70;99.90;;;;;;10309302;28;20226;-73
2023/03/20 03:20:44;;;;;;;6.80;5.47;;;10.70;99.90;;;;;;10308462;28;20272;-74
2023/03/20 03:25:45;;;;;;;8.43;5.60;;;10.70;99.90;;;;;;10309721;28;20245;-75
2023/03/20 03:30:46;;;;;;;7.03;5.67;;;10.70;99.90;;;;;;10308865;28;20231;-74
2023/03/20 03:35:48;;;;;;;6.97;6.07;;;10.70;99.90;;;;;;10311887;28;20238;-74
2023/03/20 03:41:14;;;;;;;7.37;6.67;;;10.60;99.90;;;;;;10315414;28;20238;-73
2023/03/20 03:46:46;;;;;;;8.17;6.60;;;10.70;99.90;;;;;;10318793;28;20285;-73
2023/03/20 03:51:54;;;;;;;7.80;6.50;;;10.70;99.90;;;;;;10315705;28;20240;-75
2023/03/20 03:56:57;;;;;;;7.57;6.77;;;10.70;99.90;;;;;;10321770;28;20246;-74
2023/03/20 04:01:58;;;;;;;8.00;6.73;;;10.70;99.90;;;;;;10315594;28;20316;-73
2023/03/20 04:06:59;;;;;;;7.57;6.77;;;10.70;99.90;;;;;;10317753;28;20230;-72
2023/03/20 04:12:00;;;;;;;7.20;6.40;;;10.70;99.90;;;;;;10318830;28;20580;-72
2023/03/20 04:17:00;;;;;;;7.40;6.70;;;10.70;99.90;;;;;;10315159;28;20210;-69
2023/03/20 04:22:01;;;;;;;7.53;6.73;;;10.80;99.90;;;;;;10326428;28;20222;-72
2023/03/20 04:27:01;;;;;;;8.33;7.43;;;10.80;99.90;;;;;;10315062;28;20755;-71
2023/03/20 04:32:02;;;;;;;8.83;7.80;;;10.80;99.90;;;;;;10312912;28;20229;-73
2023/03/20 04:37:04;;;;;;;8.60;7.70;;;10.80;99.90;;;;;;10314035;28;20568;-73
2023/03/20 04:42:05;;;;;;;10.30;7.90;;;10.80;99.90;;;;;;10310822;28;20223;-74
2023/03/20 04:47:05;;;;;;;10.20;8.97;;;10.80;99.90;;;;;;10315515;28;20230;-74
2023/03/20 04:52:06;;;;;;;10.40;9.30;;;10.80;99.90;;;;;;10317977;28;20317;-76
2023/03/20 04:57:07;;;;;;;9.67;8.67;;;10.90;99.90;;;;;;10321056;28;20215;-75
2023/03/20 05:02:07;;;;;;;10.83;8.90;;;10.90;99.90;;;;;;10323334;28;20217;-73
2023/03/20 05:07:09;;;;;;;10.20;8.83;;;10.90;99.90;;;;;;10328757;28;20216;-74
2023/03/20 05:12:09;;;;;;;11.97;9.90;;;10.80;99.90;;;;;;10314201;28;20246;-73
2023/03/20 05:17:10;;;;;;;10.40;9.17;;;10.80;99.90;;;;;;10329140;28;20218;-74
2023/03/20 05:22:10;;;;;;;13.97;10.27;;;10.80;99.90;;;;;;10313347;28;20323;-72
2023/03/20 05:27:11;;;;;;;11.20;10.00;;;10.80;99.90;;;;;;10315969;28;20641;-73
2023/03/20 05:32:12;;;;;;;12.07;9.87;;;10.80;99.90;;;;;;10307539;28;20222;-73
2023/03/20 05:37:13;;;;;;;11.40;9.67;;;10.90;99.90;;;;;;10308537;28;20210;-73
2023/03/20 05:42:13;;;;;;;11.23;9.33;;;10.90;99.90;;;;;;10314415;28;20223;-74
2023/03/20 05:47:14;;;;;;;11.30;9.63;;;10.90;99.90;;;;;;10311644;28;20210;-75
2023/03/20 05:52:14;;;;;;;11.43;9.57;;;10.90;99.90;;;;;;10318391;28;20229;-73
2023/03/20 05:57:16;;;;;;;11.13;9.30;;;10.90;99.90;;;;;;10317716;28;20240;-74
2023/03/20 06:02:16;;;;;;;10.30;8.97;;;10.90;99.90;;;;;;10318444;28;20288;-74
2023/03/20 06:07:17;;;;;;;11.27;9.33;;;10.90;99.90;;;;;;10323428;28;20218;-71
2023/03/20 06:12:18;;;;;;;12.97;9.40;;;11.00;99.90;;;;;;10307111;28;20234;-73
2023/03/20 06:17:18;;;;;;;11.97;9.33;;;11.00;99.90;;;;;;10314685;28;20450;-74
2023/03/20 06:22:19;;;;;;;12.17;10.13;;;11.00;99.90;;;;;;10320143;28;20651;-74
2023/03/20 06:27:20;;;;;;;11.83;9.23;;;11.00;99.90;;;;;;10304855;28;20222;-73
2023/03/20 06:32:21;;;;;;;13.17;9.40;;;11.10;99.90;;;;;;10313873;28;20309;-72
2023/03/20 06:37:21;;;;;;;12.17;9.23;;;11.00;99.90;;;;;;10307257;28;20218;-74
2023/03/20 06:42:22;;;;;;;9.20;8.23;;;11.10;99.90;;;;;;10305421;28;20620;-77
2023/03/20 06:47:25;;;;;;;11.67;9.23;;;11.10;99.90;;;;;;10325739;28;20224;-73
2023/03/20 06:52:26;;;;;;;13.77;9.53;;;11.00;99.90;;;;;;10303599;28;20229;-72
2023/03/20 06:57:29;;;;;;;13.63;10.37;;;11.10;99.90;;;;;;10301628;28;20215;-72
2023/03/20 07:02:30;;;;;;;13.57;11.20;;;11.00;99.90;;;;;;10302562;28;20226;-75
2023/03/20 07:07:31;;;;;;;11.83;9.90;;;11.00;99.90;;;;;;10309632;28;20853;-75
2023/03/20 07:12:35;;;;;;;13.50;11.43;;;11.10;99.90;;;;;;10324149;28;20220;-75
2023/03/20 07:17:36;;;;;;;14.07;11.17;;;11.10;99.90;;;;;;10309332;28;20225;-74
2023/03/20 07:22:36;;;;;;;13.90;10.77;;;11.20;99.90;;;;;;10319404;28;20235;-75
2023/03/20 07:27:40;;;;;;;14.63;11.00;;;11.40;99.90;;;;;;10316679;28;20596;-73
2023/03/20 07:32:40;;;;;;;14.27;10.90;;;11.60;99.90;;;;;;10309173;28;20225;-73
2023/03/20 07:37:41;;;;;;;13.90;10.23;;;11.60;99.90;;;;;;10322712;28;20214;-74
2023/03/20 07:42:44;;;;;;;13.10;11.17;;;11.60;99.90;;;;;;10323537;28;20226;-75
2023/03/20 07:47:45;;;;;;;13.33;11.37;;;11.50;99.90;;;;;;10323847;28;20226;-74
2023/03/20 07:52:52;;;;;;;14.97;12.77;;;11.40;99.90;;;;;;10315485;28;20308;-75
2023/03/20 07:57:52;;;;;;;15.10;13.27;;;11.40;99.90;;;;;;10315953;28;20226;-73
2023/03/20 08:02:55;;;;;;;17.90;14.30;;;11.40;99.90;;;;;;10316341;28;20219;-74
2023/03/20 08:07:56;;;;;;;19.50;15.13;;;11.30;99.90;;;;;;10307242;28;20224;-74
2023/03/20 08:12:56;;;;;;;18.00;15.00;;;11.40;99.90;;;;;;10313183;28;20222;-74
2023/03/20 08:17:57;;;;;;;15.47;13.70;;;11.40;99.90;;;;;;10321305;28;20215;-74
2023/03/20 08:22:58;;;;;;;13.17;11.03;;;11.40;99.90;;;;;;10328085;28;20217;-74
2023/03/20 08:28:00;;;;;;;15.37;12.00;;;11.50;99.90;;;;;;10311890;28;20223;-74
2023/03/20 08:33:07;;;;;;;14.07;12.23;;;11.90;99.90;;;;;;10309094;28;20634;-73
2023/03/20 08:38:11;;;;;;;14.00;11.57;;;12.10;99.90;;;;;;10310131;28;20230;-73
2023/03/20 08:43:12;;;;;;;18.10;14.73;;;12.20;99.90;;;;;;10321888;28;20281;-74
2023/03/20 08:48:13;;;;;;;18.17;14.57;;;12.10;99.90;;;;;;10313689;28;20276;-74
2023/03/20 08:53:13;;;;;;;22.50;16.17;;;12.00;99.90;;;;;;10315582;28;20223;-74
2023/03/20 08:58:14;;;;;;;21.83;17.43;;;11.90;99.90;;;;;;10316199;28;20218;-74
2023/03/20 09:03:17;;;;;;;27.17;19.83;;;11.70;99.90;;;;;;10307985;28;20281;-74
2023/03/20 09:08:18;;;;;;;26.33;20.90;;;11.60;99.90;;;;;;10309871;28;20288;-74
2023/03/20 09:13:21;;;;;;;31.53;23.23;;;11.60;99.90;;;;;;10306832;28;21008;-75
2023/03/20 09:18:22;;;;;;;33.70;24.50;;;11.50;99.90;;;;;;10312966;28;20225;-73
2023/03/20 09:23:23;;;;;;;35.40;24.67;;;11.60;99.90;;;;;;10316810;28;20230;-74
2023/03/20 09:28:24;;;;;;;36.13;26.23;;;11.70;99.90;;;;;;10316771;28;20221;-74
2023/03/20 09:33:25;;;;;;;32.53;24.83;;;11.80;99.90;;;;;;10317541;28;20229;-74
2023/03/20 09:38:26;;;;;;;37.33;26.20;;;11.90;99.90;;;;;;10305764;28;20309;-75
2023/03/20 09:43:42;;;;;;;37.00;27.37;;;12.00;99.90;;;;;;10310277;28;20300;-74
2023/03/20 09:48:56;;;;;;;42.20;27.57;;;12.00;99.90;;;;;;10303495;28;20253;-76
2023/03/20 09:54:26;;;;;;;34.87;25.47;;;12.20;99.90;;;;;;10320873;28;20230;-73
2023/03/20 09:59:27;;;;;;;32.40;23.90;;;12.90;99.90;;;;;;10304604;28;20236;-73
2023/03/20 10:04:28;;;;;;;30.03;23.83;;;14.50;99.90;;;;;;10309087;28;20232;-74
2023/03/20 10:09:30;;;;;;;30.00;22.77;;;16.40;99.90;;;;;;10303509;28;20234;-75
2023/03/20 10:15:08;;;;;;;25.20;20.67;;;17.90;99.90;;;;;;10309144;28;20230;-75
2023/03/20 10:20:28;;;;;;;21.70;19.33;;;19.40;99.90;;;;;;10305949;28;20587;-74
2023/03/20 10:25:37;;;;;;;23.97;20.20;;;20.30;99.90;;;;;;10316315;28;20998;-74
2023/03/20 10:30:49;;;;;;;21.33;18.83;;;20.60;99.90;;;;;;10325025;28;20225;-75
2023/03/20 10:36:10;;;;;;;19.83;17.73;;;20.00;99.90;;;;;;10303035;28;20238;-75
2023/03/20 10:41:17;;;;;;;19.63;16.60;;;19.80;99.90;;;;;;10309443;28;20272;-74
2023/03/20 10:46:27;;;;;;;19.40;16.10;;;19.10;99.90;;;;;;10315329;28;20768;-73
2023/03/20 10:51:48;;;;;;;17.43;14.07;;;18.30;99.90;;;;;;10311710;28;20226;-76
2023/03/20 10:56:51;;;;;;;18.67;14.37;;;17.60;99.90;;;;;;10302560;28;20233;-75
2023/03/20 11:01:51;;;;;;;17.63;13.70;;;17.10;99.90;;;;;;10318179;28;20724;-74
2023/03/20 11:07:26;;;;;;;17.53;13.40;;;17.10;99.90;;;;;;10307666;28;20228;-75
2023/03/20 11:12:32;;;;;;;14.57;11.50;;;16.60;99.90;;;;;;10305397;28;20233;-74
2023/03/20 11:17:33;;;;;;;13.93;11.07;;;16.40;99.90;;;;;;10315522;28;20216;-74
2023/03/20 11:22:35;;;;;;;12.77;9.63;;;18.80;99.90;;;;;;10334015;28;20301;-74
2023/03/20 11:27:35;;;;;;;12.57;10.37;;;20.50;99.90;;;;;;10315660;28;20709;-73
2023/03/20 11:32:44;;;;;;;10.90;9.40;;;20.70;99.90;;;;;;10316271;28;20280;-74
2023/03/20 11:37:47;;;;;;;9.97;8.97;;;20.00;99.90;;;;;;10307623;28;20211;-75
2023/03/20 11:43:02;;;;;;;10.50;8.97;;;19.10;99.90;;;;;;10307639;28;20224;-73
2023/03/20 11:48:04;;;;;;;10.93;9.43;;;18.80;99.90;;;;;;10318596;28;20283;-74
2023/03/20 11:53:28;;;;;;;10.63;8.70;;;19.20;99.90;;;;;;10318406;28;20218;-75
2023/03/20 11:58:29;;;;;;;10.63;6.77;;;19.40;99.90;;;;;;10313437;28;20230;-74
2023/03/20 12:03:44;;;;;;;9.63;7.67;;;19.40;99.90;;;;;;10308956;28;20633;-75
2023/03/20 12:08:52;;;;;;;7.43;6.03;;;19.50;99.90;;;;;;10306376;28;20655;-75
2023/03/20 12:13:57;;;;;;;7.13;6.07;;;19.50;99.90;;;;;;10319508;28;20296;-74
2023/03/20 12:19:08;;;;;;;6.17;4.53;;;19.70;99.40;;;;;;10316333;28;20219;-74
2023/03/20 12:24:22;;;;;;;5.97;3.70;;;19.20;97.30;;;;;;10320423;28;20230;-74
2023/03/20 12:29:49;;;;;;;5.70;5.20;;;18.90;98.60;;;;;;10315057;28;20229;-73
2023/03/20 12:34:58;;;;;;;6.73;5.77;;;18.80;98.10;;;;;;10314258;28;20312;-73
2023/03/20 12:40:03;;;;;;;5.53;4.80;;;18.50;98.60;;;;;;10312025;28;20218;-75
2023/03/20 12:45:13;;;;;;;6.13;5.40;;;18.40;97.10;;;;;;10308714;28;20252;-75
2023/03/20 12:50:32;;;;;;;4.40;2.63;;;18.10;97.70;;;;;;10324159;28;20226;-75
2023/03/20 12:56:15;;;;;;;5.10;3.13;;;17.80;95.50;;;;;;10312757;28;20325;-75
2023/03/20 13:01:48;;;;;;;3.40;3.07;;;17.80;95.00;;;;;;10310402;28;20237;-74
2023/03/20 13:06:53;;;;;;;3.80;3.07;;;17.80;94.60;;;;;;10297941;28;20257;-74
2023/03/20 13:12:09;;;;;;;3.77;3.40;;;17.80;94.00;;;;;;10311337;28;20218;-74
2023/03/20 13:17:21;;;;;;;4.57;3.50;;;17.50;93.70;;;;;;10316903;28;20216;-74
2023/03/20 13:22:52;;;;;;;5.57;3.97;;;17.20;93.60;;;;;;10323176;28;20225;-75
2023/03/20 13:28:24;;;;;;;6.23;5.03;;;17.10;93.10;;;;;;10309656;28;20222;-74
2023/03/20 13:33:30;;;;;;;4.70;4.20;;;17.00;94.50;;;;;;10297846;28;20225;-74
2023/03/20 13:38:40;;;;;;;6.87;5.60;;;16.90;95.40;;;;;;10317060;28;20224;-74
2023/03/20 13:43:53;;;;;;;7.37;6.27;;;16.90;95.10;;;;;;10303356;28;20715;-73
2023/03/20 13:49:01;;;;;;;5.63;5.00;;;16.60;94.80;;;;;;10312360;28;20214;-74
2023/03/20 13:54:26;;;;;;;10.73;5.37;;;16.50;95.10;;;;;;10311317;28;20227;-74
2023/03/20 13:59:49;;;;;;;6.53;5.20;;;16.40;95.00;;;;;;10311103;28;20219;-75
2023/03/20 14:04:56;;;;;;;5.37;4.83;;;16.30;93.90;;;;;;10304151;28;20318;-74
2023/03/20 14:10:15;;;;;;;5.50;3.80;;;16.30;94.00;;;;;;10308119;28;20761;-73
2023/03/20 14:15:18;;;;;;;3.50;3.20;;;16.30;92.50;;;;;;10307730;28;20233;-75
2023/03/20 14:20:33;;;;;;;4.33;3.40;;;16.40;91.00;;;;;;10315569;28;20601;-68
2023/03/20 14:25:42;;;;;;;4.80;3.80;;;16.60;91.00;;;;;;10309039;28;20269;-68
2023/03/20 14:30:45;;;;;;;4.50;3.67;;;16.70;91.10;;;;;;10316843;28;20295;-67
2023/03/20 14:35:50;;;;;;;4.27;3.77;;;16.80;90.60;;;;;;10319486;28;20644;-67
2023/03/20 14:41:13;;;;;;;7.27;4.10;;;16.60;90.70;;;;;;10303638;28;20228;-68
2023/03/20 14:46:33;;;;;;;4.67;3.50;;;16.40;90.10;;;;;;10305403;28;20222;-67
2023/03/20 14:51:40;;;;;;;3.77;3.33;;;16.20;90.60;;;;;;10308643;28;20690;-66
2023/03/20 14:56:41;;;;;;;4.10;2.90;;;16.20;90.20;;;;;;10301556;28;20226;-69
2023/03/20 15:01:47;;;;;;;6.87;2.90;;;16.00;89.20;;;;;;10309536;28;20238;-67
2023/03/20 15:07:09;;;;;;;4.00;2.87;;;15.90;90.00;;;;;;10302478;28;20726;-69
2023/03/20 15:12:16;;;;;;;4.40;2.90;;;15.80;89.50;;;;;;10315629;28;20239;-68
2023/03/20 15:17:20;;;;;;;5.27;2.80;;;15.60;90.00;;;;;;10314042;28;20204;-68
2023/03/20 15:22:21;;;;;;;3.87;2.60;;;15.60;90.10;;;;;;10311608;28;20219;-68
2023/03/20 15:27:28;;;;;;;3.97;2.00;;;15.60;87.70;;;;;;10315058;28;20250;-67
2023/03/20 15:32:29;;;;;;;5.73;2.37;;;15.70;86.10;;;;;;10305744;28;20294;-69
2023/03/20 15:37:29;;;;;;;4.33;2.00;;;15.80;81.50;;;;;;10315896;28;20727;-68
2023/03/20 15:42:30;;;;;;;4.33;2.73;;;15.70;79.10;;;;;;10314436;28;20591;-67
2023/03/20 15:47:33;;;;;;;3.83;2.80;;;15.40;80.20;;;;;;10308654;28;20787;-67
2023/03/20 15:52:39;;;;;;;5.67;2.83;;;15.10;82.40;;;;;;10314317;28;20235;-67
2023/03/20 15:57:46;;;;;;;3.03;2.60;;;14.80;84.70;;;;;;10310196;28;20344;-68
2023/03/20 16:02:47;;;;;;;6.73;3.23;;;14.60;86.50;;;;;;10316048;28;20223;-68
2023/03/20 16:07:48;;;;;;;5.13;3.20;;;14.50;87.20;;;;;;10321394;28;20268;-67
2023/03/20 16:12:51;;;;;;;5.37;2.53;;;14.50;88.00;;;;;;10313743;28;20246;-69
2023/03/20 16:17:56;;;;;;;3.10;2.10;;;14.50;88.00;;;;;;10311551;28;20235;-67
2023/03/20 16:23:01;;;;;;;3.10;2.10;;;14.40;84.50;;;;;;10318064;28;20216;-67
2023/03/20 16:28:05;;;;;;;3.60;2.20;;;14.30;85.50;;;;;;10308967;28;20247;-68
2023/03/20 16:33:15;;;;;;;4.43;2.30;;;14.10;85.40;;;;;;10322826;28;20245;-69
2023/03/20 16:38:22;;;;;;;3.53;2.37;;;13.90;84.60;;;;;;10313731;28;20230;-67
2023/03/20 16:43:29;;;;;;;5.60;2.13;;;13.70;85.20;;;;;;10307400;28;20234;-67
2023/03/20 16:48:36;;;;;;;5.83;2.33;;;13.60;85.80;;;;;;10311524;28;20226;-67
2023/03/20 16:53:43;;;;;;;3.53;2.03;;;13.40;87.90;;;;;;10305391;28;20234;-68
2023/03/20 16:58:44;;;;;;;3.30;2.00;;;13.30;89.80;;;;;;10319776;28;20226;-69
2023/03/20 17:03:57;;;;;;;3.00;2.00;;;13.20;89.70;;;;;;10312358;28;20365;-66
2023/03/20 17:09:25;;;;;;;3.97;2.03;;;13.10;90.70;;;;;;10312722;28;20311;-67
2023/03/20 17:14:26;;;;;;;4.40;2.20;;;13.00;91.50;;;;;;10313385;28;20218;-68
2023/03/20 17:19:26;;;;;;;4.43;2.30;;;12.90;92.40;;;;;;10304002;28;20217;-67
2023/03/20 17:24:27;;;;;;;4.53;2.10;;;12.90;93.00;;;;;;10313313;28;20221;-69
2023/03/20 17:29:27;;;;;;;2.00;1.73;;;12.70;92.90;;;;;;10319606;28;20242;-67
2023/03/20 17:34:28;;;;;;;4.47;2.03;;;12.60;93.40;;;;;;10305075;28;20237;-68
2023/03/20 17:39:28;;;;;;;4.40;2.20;;;12.60;94.10;;;;;;10309830;28;20689;-68
2023/03/20 17:44:29;;;;;;;4.07;2.47;;;12.50;94.20;;;;;;10311059;28;20219;-68
2023/03/20 17:49:31;;;;;;;3.93;2.43;;;12.40;94.70;;;;;;10309549;28;20213;-67
2023/03/20 17:54:34;;;;;;;3.37;2.90;;;12.30;95.30;;;;;;10303472;28;20309;-70
2023/03/20 17:59:34;;;;;;;6.50;2.53;;;12.30;95.70;;;;;;10316677;28;20222;-68
2023/03/20 18:04:38;;;;;;;4.13;2.67;;;12.30;95.70;;;;;;10330283;28;20222;-68
2023/03/20 18:09:39;;;;;;;3.87;2.63;;;12.20;96.10;;;;;;10302412;28;20222;-68
2023/03/20 18:14:40;;;;;;;4.50;2.53;;;12.10;96.30;;;;;;10322411;28;20753;-68
2023/03/20 18:19:42;;;;;;;5.20;2.83;;;12.00;96.70;;;;;;10301789;28;20226;-67
2023/03/20 18:24:43;;;;;;;3.50;2.80;;;12.00;97.00;;;;;;10309938;28;20210;-70
2023/03/20 18:29:43;;;;;;;5.83;3.03;;;12.00;97.20;;;;;;10317509;28;20305;-69
2023/03/20 18:34:44;;;;;;;5.80;3.53;;;12.00;97.70;;;;;;10309735;28;20287;-68
2023/03/20 18:39:44;;;;;;;6.97;3.20;;;12.00;97.90;;;;;;10311303;28;20269;-70
2023/03/20 18:44:45;;;;;;;4.70;2.43;;;12.00;97.70;;;;;;10313283;28;20713;-68
2023/03/20 18:49:45;;;;;;;5.60;2.60;;;12.00;97.80;;;;;;10314710;28;20226;-68
2023/03/20 18:54:46;;;;;;;8.17;3.17;;;12.00;98.20;;;;;;10302342;28;20649;-69
2023/03/20 18:59:49;;;;;;;5.73;3.00;;;12.00;99.60;;;;;;10314756;28;20221;-68
2023/03/20 19:04:50;;;;;;;4.73;2.70;;;11.90;99.90;;;;;;10304565;28;20240;-69
2023/03/20 19:09:50;;;;;;;4.00;2.80;;;11.90;99.70;;;;;;10317192;28;20223;-66
2023/03/20 19:14:51;;;;;;;3.20;2.90;;;11.90;99.40;;;;;;10315084;28;20715;-67
2023/03/20 19:19:51;;;;;;;4.30;2.53;;;11.90;99.30;;;;;;10310026;28;20219;-66
2023/03/20 19:24:52;;;;;;;4.30;2.70;;;11.80;99.80;;;;;;10327254;28;20958;-68
2023/03/20 19:29:55;;;;;;;3.40;2.63;;;11.80;99.90;;;;;;10308895;28;20226;-67
2023/03/20 19:34:56;;;;;;;7.00;2.90;;;11.80;99.90;;;;;;10314446;28;20266;-66
2023/03/20 19:39:57;;;;;;;5.63;4.00;;;11.70;99.90;;;;;;10310297;28;20223;-70
2023/03/20 19:44:57;;;;;;;5.20;2.80;;;11.70;99.90;;;;;;10323430;28;20728;-67
2023/03/20 19:49:58;;;;;;;4.70;3.23;;;11.70;99.90;;;;;;10320079;28;20271;-67
2023/03/20 19:54:58;;;;;;;4.10;2.50;;;11.60;99.90;;;;;;10310413;28;20218;-68
2023/03/20 20:00:06;;;;;;;6.27;3.03;;;11.60;99.90;;;;;;10322248;28;20587;-68
2023/03/20 20:05:25;;;;;;;3.83;2.70;;;11.60;99.90;;;;;;10313315;28;20301;-66
2023/03/20 20:10:33;;;;;;;4.90;2.83;;;11.50;99.90;;;;;;10325541;28;20242;-67
2023/03/20 20:15:34;;;;;;;4.13;2.97;;;11.50;99.90;;;;;;10313423;28;20226;-67
2023/03/20 20:20:35;;;;;;;5.53;3.00;;;11.50;99.90;;;;;;10307817;28;20227;-67
2023/03/20 20:25:36;;;;;;;5.60;3.20;;;11.50;99.90;;;;;;10314189;28;20244;-68
2023/03/20 20:30:37;;;;;;;4.70;2.83;;;11.50;99.90;;;;;;10307355;28;20654;-67
2023/03/20 20:35:37;;;;;;;7.37;2.70;;;11.50;99.90;;;;;;10316431;28;20321;-67
2023/03/20 20:40:39;;;;;;;6.43;2.80;;;11.50;99.90;;;;;;10320785;28;20275;-67
2023/03/20 20:45:40;;;;;;;6.07;3.20;;;11.50;99.90;;;;;;10322991;28;20297;-67
2023/03/20 20:50:43;;;;;;;6.83;2.97;;;11.40;99.90;;;;;;10306577;28;20245;-68
2023/03/20 20:55:43;;;;;;;4.00;2.97;;;11.30;99.90;;;;;;10305560;28;20261;-68
2023/03/20 21:00:44;;;;;;;4.50;3.20;;;11.30;99.90;;;;;;10305310;28;20230;-68
2023/03/20 21:05:45;;;;;;;6.87;3.30;;;11.20;99.90;;;;;;10316097;28;20228;-69
2023/03/20 21:10:46;;;;;;;7.47;3.70;;;11.20;99.90;;;;;;10312641;28;20221;-68
2023/03/20 21:15:56;;;;;;;5.07;2.90;;;11.20;99.90;;;;;;10317767;28;20229;-67
2023/03/20 21:21:07;;;;;;;4.33;2.80;;;11.20;99.90;;;;;;10318216;28;20227;-67
2023/03/20 21:26:08;;;;;;;8.50;3.20;;;11.10;99.90;;;;;;10307825;28;20229;-67
2023/03/20 21:31:10;;;;;;;5.33;2.60;;;11.10;99.90;;;;;;10314559;28;20304;-70
2023/03/20 21:36:11;;;;;;;6.60;3.30;;;11.10;99.90;;;;;;10307627;28;20230;-67
2023/03/20 21:41:12;;;;;;;4.53;3.13;;;11.10;99.90;;;;;;10308184;28;20228;-66
2023/03/20 21:46:13;;;;;;;7.33;2.97;;;11.00;99.90;;;;;;10303912;28;20229;-70
2023/03/20 21:51:14;;;;;;;6.53;3.30;;;11.00;99.90;;;;;;10306763;28;20245;-68
2023/03/20 21:56:15;;;;;;;6.00;3.10;;;11.00;99.90;;;;;;10308012;28;20236;-67
2023/03/20 22:01:16;;;;;;;7.77;3.17;;;11.00;99.90;;;;;;10321979;28;20234;-67
2023/03/20 22:06:17;;;;;;;7.00;3.03;;;11.10;99.90;;;;;;10307646;28;20225;-68
2023/03/20 22:11:17;;;;;;;7.53;3.43;;;11.00;99.90;;;;;;10313232;28;20647;-66
2023/03/20 22:16:18;;;;;;;7.93;3.87;;;11.00;99.90;;;;;;10307614;28;20325;-65
2023/03/20 22:21:22;;;;;;;8.77;3.10;;;11.00;99.90;;;;;;10305724;28;20265;-65
2023/03/20 22:26:22;;;;;;;5.47;3.07;;;11.00;99.90;;;;;;10314195;28;20244;-65
2023/03/20 22:31:23;;;;;;;6.13;2.80;;;10.90;99.90;;;;;;10314616;28;20376;-66
2023/03/20 22:36:23;;;;;;;4.77;2.93;;;10.90;99.90;;;;;;10304385;28;20234;-65
2023/03/20 22:41:25;;;;;;;7.53;3.20;;;10.90;99.90;;;;;;10316919;28;20221;-64
2023/03/20 22:46:25;;;;;;;4.93;2.90;;;10.80;99.90;;;;;;10317593;28;20252;-66
2023/03/20 22:51:26;;;;;;;6.10;3.20;;;10.80;99.90;;;;;;10322081;28;20644;-67
2023/03/20 22:56:27;;;;;;;7.10;3.50;;;10.80;99.90;;;;;;10333555;28;20320;-66
2023/03/20 23:01:27;;;;;;;6.53;3.17;;;10.80;99.90;;;;;;10321164;28;20229;-64
2023/03/20 23:06:28;;;;;;;6.33;3.40;;;10.70;99.90;;;;;;10316420;28;20621;-65
2023/03/20 23:11:30;;;;;;;5.87;3.10;;;10.70;99.90;;;;;;10322347;28;20244;-65
2023/03/20 23:16:30;;;;;;;5.23;3.17;;;10.70;99.90;;;;;;10322302;28;20248;-66
2023/03/20 23:21:31;;;;;;;6.23;3.10;;;10.60;99.90;;;;;;10316561;28;20226;-65
2023/03/20 23:26:34;;;;;;;4.60;3.13;;;10.70;99.90;;;;;;10321531;28;20240;-67
2023/03/20 23:31:35;;;;;;;6.77;3.00;;;10.70;99.90;;;;;;10326433;28;20249;-66
2023/03/20 23:36:35;;;;;;;6.87;3.33;;;10.60;99.90;;;;;;10321812;28;20239;-65
2023/03/20 23:41:36;;;;;;;5.40;3.20;;;10.60;99.90;;;;;;10315186;28;20293;-66
2023/03/20 23:46:37;;;;;;;5.00;3.30;;;10.60;99.90;;;;;;10321389;28;20316;-66
2023/03/20 23:51:37;;;;;;;5.30;3.00;;;10.60;99.90;;;;;;10310648;28;20697;-66
2023/03/20 23:56:38;;;;;;;6.43;3.60;;;10.60;99.90;;;;;;10315624;28;20764;-65
